Time;durP1;ratioP1;P1;durP2;ratioP2;P2;SDS_P1;SDS_P2;PMS_P1;PMS_P2;Temp;Humidity;BMP_temperature;BMP_pressure;BME280_temperature;BME280_humidity;BME280_pressure;Samples;Min_cycle;Max_cycle;Signal;HPM_P1;HPM_P2
2023/09/21 00:00:16;;;;;;;;;;;15.70;99.90;;;15.95;100.00;99631.94;4976510;28;19918;-87
2023/09/21 00:02:49;;;;;;;;;;;15.70;99.90;;;15.93;100.00;99630.53;4968075;28;19929;-90
2023/09/21 00:05:19;;;;;;;;;;;15.70;99.90;;;15.96;100.00;99625.31;4974356;28;19925;-89
2023/09/21 00:07:45;;;;;;;;;;;15.70;99.90;;;15.96;100.00;99630.81;4971454;28;20018;-89
2023/09/21 00:10:12;;;;;;;;;;;15.70;99.90;;;15.91;100.00;99625.34;4975883;28;20381;-89
2023/09/21 00:12:39;;;;;;;;;;;15.70;99.90;;;15.92;100.00;99615.16;4973573;28;19938;-89
2023/09/21 00:15:07;;;;;;;;;;;15.70;99.90;;;15.86;100.00;99614.28;4942653;29;19978;-89
2023/09/21 00:17:39;;;;;;;;;;;15.70;99.90;;;15.87;100.00;99618.69;4963069;28;19968;-90
2023/09/21 00:20:21;;;;;;;;;;;15.60;99.90;;;15.79;100.00;99617.34;4959977;28;19941;-89
2023/09/21 00:22:47;;;;;;;;;;;15.60;99.90;;;15.84;100.00;99602.75;4977540;28;20015;-89
2023/09/21 00:25:16;;;;;;;;;;;15.60;99.90;;;15.84;100.00;99613.75;4966478;28;20039;-87
2023/09/21 00:27:41;;;;;;;;;;;15.60;99.90;;;15.78;100.00;99610.19;4962259;28;19915;-89
2023/09/21 00:30:07;;;;;;;;;;;15.60;99.90;;;15.75;100.00;99598.94;4968805;28;19926;-88
2023/09/21 00:32:40;;;;;;;;;;;15.50;99.90;;;15.71;100.00;99603.34;4969685;28;19973;-89
2023/09/21 00:35:09;;;;;;;;;;;15.50;99.90;;;15.69;100.00;99603.59;4962256;28;19925;-89
2023/09/21 00:37:39;;;;;;;;;;;15.50;99.90;;;15.65;100.00;99600.59;4967842;28;20001;-89
2023/09/21 00:40:14;;;;;;;;;;;15.40;99.90;;;15.64;100.00;99592.59;4951611;29;19922;-88
2023/09/21 00:42:41;;;;;;;;;;;15.40;99.90;;;15.61;100.00;99596.72;4946590;28;19926;-88
2023/09/21 00:45:08;;;;;;;;;;;15.40;99.90;;;15.60;100.00;99594.28;4971706;28;20437;-89
2023/09/21 00:47:38;;;;;;;;;;;15.30;99.90;;;15.57;100.00;99581.88;4957454;28;19918;-88
2023/09/21 00:50:07;;;;;;;;;;;15.30;99.90;;;15.54;100.00;99585.19;4959619;28;19929;-89
2023/09/21 00:52:36;;;;;;;;;;;15.30;99.90;;;15.41;100.00;99574.78;4965908;28;20287;-88
2023/09/21 00:55:05;;;;;;;;;;;15.20;99.90;;;15.33;100.00;99571.44;4964324;28;19924;-88
2023/09/21 00:57:32;;;;;;;;;;;15.10;99.90;;;15.15;100.00;99572.03;4960935;28;20362;-88
2023/09/21 00:59:58;;;;;;;;;;;14.90;99.90;;;14.97;100.00;99560.47;4943771;28;19922;-88
2023/09/21 01:02:25;;;;;;;;;;;14.70;99.90;;;14.75;100.00;99549.72;4959196;28;19988;-89
2023/09/21 01:04:52;;;;;;;;;;;14.50;99.90;;;14.58;100.00;99544.41;4956194;28;19957;-88
2023/09/21 01:07:22;;;;;;;;;;;14.30;99.90;;;14.39;100.00;99542.19;4968642;28;19918;-87
2023/09/21 01:09:50;;;;;;;;;;;14.20;99.90;;;14.30;100.00;99528.16;4959892;28;19930;-88
2023/09/21 01:12:17;;;;;;;;;;;14.00;99.90;;;14.20;100.00;99523.47;4969195;28;19973;-87
2023/09/21 01:14:44;;;;;;;;;;;13.90;99.90;;;14.15;100.00;99512.47;4971854;28;19918;-88
2023/09/21 01:17:09;;;;;;;;;;;13.80;99.90;;;14.12;100.00;99498.47;4978273;28;19922;-88
2023/09/21 01:19:35;;;;;;;;;;;13.80;99.90;;;14.07;100.00;99485.56;4965058;28;19925;-88
2023/09/21 01:22:13;;;;;;;;;;;13.80;99.90;;;14.18;100.00;99481.75;4956274;28;20418;-89
2023/09/21 01:24:40;;;;;;;;;;;13.90;99.90;;;14.28;100.00;99480.13;4970436;28;20274;-89
2023/09/21 01:27:07;;;;;;;;;;;14.00;99.90;;;14.44;100.00;99470.84;4963829;28;19997;-89
2023/09/21 01:29:33;;;;;;;;;;;14.10;99.90;;;14.53;100.00;99482.94;4981419;28;19922;-89
2023/09/21 01:31:58;;;;;;;;;;;14.30;99.90;;;14.62;100.00;99485.16;4954896;28;19929;-88
2023/09/21 01:34:24;;;;;;;;;;;14.40;99.90;;;14.79;100.00;99504.16;4959813;28;19969;-89
2023/09/21 01:36:50;;;;;;;;;;;14.50;99.90;;;15.00;100.00;99517.91;4953758;29;19957;-88
2023/09/21 01:39:16;;;;;;;;;;;14.70;99.90;;;15.02;100.00;99518.44;4953986;28;19925;-88
2023/09/21 01:41:41;;;;;;;;;;;14.80;99.90;;;15.06;100.00;99525.84;4953324;28;20377;-88
2023/09/21 01:44:09;;;;;;;;;;;14.80;99.90;;;15.13;100.00;99522.03;4956071;28;20393;-88
2023/09/21 01:46:34;;;;;;;;;;;14.90;99.90;;;15.16;100.00;99526.97;4957265;28;19918;-89
2023/09/21 01:49:00;;;;;;;;;;;14.90;99.90;;;15.15;100.00;99531.63;4961199;28;19918;-89
2023/09/21 01:51:26;;;;;;;;;;;14.90;99.90;;;15.15;100.00;99528.06;4968300;28;19989;-88
2023/09/21 01:53:53;;;;;;;;;;;14.90;99.90;;;15.10;100.00;99512.41;4965321;28;19918;-89
2023/09/21 01:56:21;;;;;;;;;;;15.00;99.90;;;15.19;100.00;99520.91;4934996;29;20014;-88
2023/09/21 01:58:47;;;;;;;;;;;15.10;99.90;;;15.24;100.00;99524.47;4971585;28;19934;-87
2023/09/21 02:01:18;;;;;;;;;;;15.00;99.90;;;15.29;100.00;99523.66;4970013;28;19925;-85
2023/09/21 02:03:44;;;;;;;;;;;15.20;99.90;;;15.34;100.00;99520.09;4976369;28;19918;-87
2023/09/21 02:06:11;;;;;;;;;;;15.30;99.90;;;15.37;100.00;99520.34;4961485;28;19918;-86
2023/09/21 02:08:38;;;;;;;;;;;15.30;99.90;;;15.33;100.00;99508.25;4959315;28;20378;-88
2023/09/21 02:11:05;;;;;;;;;;;15.20;99.90;;;15.33;100.00;99504.69;4966103;28;19918;-87
2023/09/21 02:13:31;;;;;;;;;;;15.20;99.90;;;15.36;100.00;99501.41;4959301;28;19919;-87
2023/09/21 02:15:57;;;;;;;;;;;15.20;99.90;;;15.30;100.00;99502.50;4970076;28;19925;-88
2023/09/21 02:18:23;;;;;;;;;;;15.20;99.90;;;15.29;100.00;99501.66;4973034;28;19918;-88
2023/09/21 02:20:54;;;;;;;;;;;15.20;99.90;;;15.27;100.00;99501.13;4974290;28;20032;-88
2023/09/21 02:23:20;;;;;;;;;;;15.20;99.90;;;15.27;100.00;99490.13;4971999;28;20450;-87
2023/09/21 02:25:46;;;;;;;;;;;15.20;99.90;;;15.32;100.00;99498.38;4969177;28;20060;-87
2023/09/21 02:28:12;;;;;;;;;;;15.20;99.90;;;15.28;100.00;99486.28;4967974;28;19942;-86
2023/09/21 02:30:40;;;;;;;;;;;15.20;99.90;;;15.24;100.00;99490.69;4969596;28;19973;-88
2023/09/21 02:33:09;;;;;;;;;;;15.10;99.90;;;15.29;100.00;99496.19;4967771;28;19926;-88
2023/09/21 02:35:41;;;;;;;;;;;15.20;99.90;;;15.28;100.00;99489.03;4960110;28;20397;-88
2023/09/21 02:38:08;;;;;;;;;;;15.20;99.90;;;15.31;100.00;99493.16;4959577;28;20353;-86
2023/09/21 02:40:33;;;;;;;;;;;15.20;99.90;;;15.28;100.00;99486.28;4969382;28;19946;-86
2023/09/21 02:43:00;;;;;;;;;;;15.20;99.90;;;15.19;100.00;99477.78;4948975;28;20430;-88
2023/09/21 02:45:29;;;;;;;;;;;15.20;99.90;;;15.21;100.00;99483.00;4958097;28;19961;-87
2023/09/21 02:48:00;;;;;;;;;;;15.10;99.90;;;15.20;100.00;99481.38;4946132;29;20013;-87
2023/09/21 02:50:27;;;;;;;;;;;15.10;99.90;;;15.24;100.00;99479.69;4965337;28;19930;-86
2023/09/21 02:53:01;;;;;;;;;;;15.10;99.90;;;15.28;100.00;99483.53;4954658;29;20394;-87
2023/09/21 02:55:27;;;;;;;;;;;15.10;99.90;;;15.28;100.00;99477.25;4957166;28;20282;-87
2023/09/21 02:58:04;;;;;;;;;;;15.20;99.90;;;15.32;100.00;99473.63;4958552;28;19918;-85
2023/09/21 03:02:59;;;;;;;;;;;15.30;99.90;;;15.29;100.00;99454.16;4966684;28;19914;-87
2023/09/21 03:05:26;;;;;;;;;;;15.20;99.90;;;15.32;100.00;99468.16;4965735;28;19918;-87
2023/09/21 03:07:52;;;;;;;;;;;15.20;99.90;;;15.32;100.00;99468.16;4958231;28;19964;-88
2023/09/21 03:10:21;;;;;;;;;;;15.20;99.90;;;15.32;100.00;99459.09;4959258;28;19917;-88
2023/09/21 03:12:51;;;;;;;;;;;15.20;99.90;;;15.33;100.00;99468.97;4973425;28;19918;-88
2023/09/21 03:15:19;;;;;;;;;;;15.20;99.90;;;15.34;100.00;99465.94;4954429;28;19922;-87
2023/09/21 03:17:47;;;;;;;;;;;15.20;99.90;;;15.38;100.00;99469.81;4958068;28;19918;-86
2023/09/21 03:20:34;;;;;;;;;;;15.20;99.90;;;15.37;100.00;99462.63;4954360;29;19918;-88
2023/09/21 03:23:05;;;;;;;;;;;15.30;99.90;;;15.39;100.00;99473.34;4949829;29;19928;-87
2023/09/21 03:25:34;;;;;;;;;;;15.30;99.90;;;15.39;100.00;99463.22;4965709;28;20000;-87
2023/09/21 03:28:15;;;;;;;;;;;15.20;99.90;;;15.32;100.00;99461.84;4969813;28;19965;-88
2023/09/21 03:30:48;;;;;;;;;;;15.20;99.90;;;15.36;100.00;99465.69;4970710;28;19918;-88
2023/09/21 03:33:15;;;;;;;;;;;15.20;99.90;;;15.42;100.00;99463.75;4973217;28;19925;-88
2023/09/21 03:35:42;;;;;;;;;;;15.20;99.90;;;15.47;100.00;99467.28;4944964;28;19937;-88
2023/09/21 03:38:12;;;;;;;;;;;15.30;99.90;;;15.46;100.00;99456.59;4975707;28;19922;-90
2023/09/21 03:40:41;;;;;;;;;;;15.30;99.90;;;15.48;100.00;99459.88;4979555;28;20354;-88
2023/09/21 03:43:10;;;;;;;;;;;15.30;99.90;;;15.46;100.00;99453.84;4953942;28;19925;-88
2023/09/21 03:45:40;;;;;;;;;;;15.30;99.90;;;15.46;100.00;99451.91;4980327;28;19964;-88
2023/09/21 03:48:08;;;;;;;;;;;15.30;99.90;;;15.45;100.00;99454.94;4955858;29;19918;-88
2023/09/21 03:50:35;;;;;;;;;;;15.30;99.90;;;15.46;100.00;99456.59;4956488;28;20058;-88
2023/09/21 03:53:05;;;;;;;;;;;15.30;99.90;;;15.44;100.00;99451.34;4974838;28;20020;-88
2023/09/21 03:55:32;;;;;;;;;;;15.30;99.90;;;15.44;100.00;99448.59;4980524;28;20397;-89
2023/09/21 03:57:57;;;;;;;;;;;15.30;99.90;;;15.45;100.00;99446.69;4959960;28;20433;-90
2023/09/21 04:00:29;;;;;;;;;;;15.30;99.90;;;15.43;100.00;99444.22;4970397;28;20072;-88
2023/09/21 04:03:03;;;;;;;;;;;15.30;99.90;;;15.51;100.00;99443.63;4953117;28;19914;-88
2023/09/21 04:05:34;;;;;;;;;;;15.40;99.90;;;15.51;100.00;99451.06;4963180;28;19978;-89
2023/09/21 04:08:00;;;;;;;;;;;15.30;99.90;;;15.48;100.00;99446.13;4950324;29;19961;-90
2023/09/21 04:10:26;;;;;;;;;;;15.30;99.90;;;15.37;100.00;99429.66;4968200;28;20005;-89
2023/09/21 04:12:55;;;;;;;;;;;15.30;99.90;;;15.39;100.00;99432.13;4957318;28;20334;-90
2023/09/21 04:15:28;;;;;;;;;;;15.30;99.90;;;15.30;100.00;99437.38;4967482;28;19918;-88
2023/09/21 04:17:55;;;;;;;;;;;15.20;99.90;;;15.29;100.00;99426.69;4966811;28;19930;-88
2023/09/21 04:20:21;;;;;;;;;;;15.20;99.90;;;15.24;100.00;99430.25;4953597;28;19918;-89
2023/09/21 04:22:50;;;;;;;;;;;15.10;99.90;;;15.27;100.00;99434.38;4972525;28;19918;-90
2023/09/21 04:25:16;;;;;;;;;;;15.10;99.90;;;15.30;100.00;99425.59;4953492;28;19918;-89
2023/09/21 04:27:53;;;;;;;;;;;15.10;99.90;;;15.23;100.00;99428.59;4939385;28;19922;-88
2023/09/21 04:30:22;;;;;;;;;;;15.10;99.90;;;15.30;100.00;99425.59;4954800;28;19918;-88
2023/09/21 04:32:49;;;;;;;;;;;15.10;99.90;;;15.27;100.00;99423.41;4944776;28;19973;-86
2023/09/21 04:35:20;;;;;;;;;;;15.10;99.90;;;15.28;100.00;99419.53;4950192;28;19925;-89
2023/09/21 04:37:47;;;;;;;;;;;15.10;99.90;;;15.28;100.00;99417.59;4969124;28;19925;-89
2023/09/21 04:40:14;;;;;;;;;;;15.20;99.90;;;15.33;100.00;99414.03;4947395;28;20132;-88
2023/09/21 04:42:46;;;;;;;;;;;15.20;99.90;;;15.32;100.00;99409.63;4966848;28;20373;-87
2023/09/21 04:45:16;;;;;;;;;;;15.20;99.90;;;15.38;100.00;99414.84;4960058;28;19925;-87
2023/09/21 04:47:48;;;;;;;;;;;15.30;99.90;;;15.40;100.00;99409.06;4958033;28;19985;-85
2023/09/21 04:50:16;;;;;;;;;;;15.30;99.90;;;15.47;100.00;99417.00;4974265;28;20286;-85
2023/09/21 04:52:43;;;;;;;;;;;15.30;99.90;;;15.43;100.00;99419.50;4959251;28;19973;-88
2023/09/21 04:55:14;;;;;;;;;;;15.30;99.90;;;15.40;100.00;99420.03;4966684;28;19925;-90
2023/09/21 04:57:40;;;;;;;;;;;15.30;99.90;;;15.43;100.00;99415.94;4965086;28;19918;-88
2023/09/21 05:00:07;;;;;;;;;;;15.30;99.90;;;15.40;100.00;99414.56;4957026;28;19918;-88
2023/09/21 05:02:34;;;;;;;;;;;15.30;99.90;;;15.35;100.00;99409.88;4972769;28;19922;-90
2023/09/21 05:05:00;;;;;;;;;;;15.20;99.90;;;15.35;100.00;99409.06;4972162;28;19997;-90
2023/09/21 05:07:27;;;;;;;;;;;15.20;99.90;;;15.23;100.00;99406.63;4958263;28;19925;-88
2023/09/21 05:09:52;;;;;;;;;;;15.00;99.90;;;15.19;100.00;99411.84;4966473;28;19989;-91
2023/09/21 05:12:21;;;;;;;;;;;15.00;99.90;;;15.16;100.00;99408.84;4967414;28;20374;-90
2023/09/21 05:14:47;;;;;;;;;;;14.90;99.90;;;15.02;100.00;99401.16;4967142;28;20314;-90
2023/09/21 05:17:14;;;;;;;;;;;14.80;99.90;;;14.94;100.00;99405.28;4970693;28;20364;-85
2023/09/21 05:19:40;;;;;;;;;;;14.70;99.90;;;14.96;100.00;99408.59;4955086;28;20434;-85
2023/09/21 05:22:08;;;;;;;;;;;14.70;99.90;;;15.12;100.00;99405.00;4948480;28;19964;-83
2023/09/21 05:24:35;;;;;;;;;;;14.90;99.90;;;15.18;100.00;99409.41;4963940;28;19961;-85
2023/09/21 05:27:01;;;;;;;;;;;14.90;99.90;;;15.26;100.00;99417.06;4962650;28;19945;-85
2023/09/21 05:29:27;;;;;;;;;;;15.00;99.90;;;15.29;100.00;99402.75;4965626;28;19968;-84
2023/09/21 05:31:53;;;;;;;;;;;15.10;99.90;;;15.39;100.00;99410.16;4954904;28;19949;-86
2023/09/21 05:34:21;;;;;;;;;;;15.20;99.90;;;15.37;100.00;99410.44;4960747;28;19919;-85
2023/09/21 05:36:50;;;;;;;;;;;15.10;99.90;;;15.37;100.00;99406.88;4969127;28;20004;-85
2023/09/21 05:39:16;;;;;;;;;;;15.20;99.90;;;15.42;100.00;99406.84;4959421;28;19919;-85
2023/09/21 05:41:46;;;;;;;;;;;15.20;99.90;;;15.49;100.00;99401.88;4971709;28;19914;-86
2023/09/21 05:44:12;;;;;;;;;;;15.20;99.90;;;15.61;100.00;99411.75;4972894;28;20377;-85
2023/09/21 05:46:38;;;;;;;;;;;15.20;99.90;;;15.72;100.00;99409.78;4969589;28;19914;-85
2023/09/21 05:49:05;;;;;;;;;;;15.40;99.90;;;15.75;100.00;99395.47;4966513;28;19921;-86
2023/09/21 05:51:32;;;;;;;;;;;15.50;99.90;;;15.83;100.00;99403.13;4966273;28;19914;-86
2023/09/21 05:53:58;;;;;;;;;;;15.60;99.90;;;15.88;100.00;99400.38;4950811;28;19925;-86
2023/09/21 05:56:23;;;;;;;;;;;15.70;99.90;;;15.95;100.00;99403.66;4974957;28;19918;-85
2023/09/21 05:58:49;;;;;;;;;;;15.80;99.90;;;16.08;100.00;99410.47;4975105;28;20019;-88
2023/09/21 06:01:15;;;;;;;;;;;15.90;99.90;;;16.24;100.00;99397.44;4965588;28;19925;-88
2023/09/21 06:03:41;;;;;;;;;;;;;;;16.45;100.00;99399.19;4972097;28;19925;-87
2023/09/21 06:06:07;;;;;;;;;;;;;;;16.68;100.00;99403.97;4976704;28;19949;-85
2023/09/21 06:08:34;;;;;;;;;;;16.10;99.90;;;16.93;100.00;99393.84;4974939;28;20394;-84
2023/09/21 06:11:02;;;;;;;;;;;16.90;99.90;;;17.06;100.00;99399.81;4974140;28;19933;-82
2023/09/21 06:13:28;;;;;;;;;;;17.00;99.90;;;17.18;100.00;99405.75;4973871;28;19973;-82
2023/09/21 06:15:54;;;;;;;;;;;17.20;99.90;;;17.27;100.00;99403.19;4972961;28;19922;-84
2023/09/21 06:18:21;;;;;;;;;;;17.30;99.90;;;17.35;100.00;99393.44;4970797;28;19945;-87
2023/09/21 06:20:46;;;;;;;;;;;17.40;99.90;;;17.45;100.00;99411.81;4980302;28;19925;-89
2023/09/21 06:23:15;;;;;;;;;;;17.50;99.90;;;17.57;100.00;99403.13;4974394;28;19930;-87
2023/09/21 06:25:41;;;;;;;;;;;17.60;99.90;;;17.64;100.00;99406.38;4968567;28;20381;-90
2023/09/21 06:28:07;;;;;;;;;;;17.70;99.90;;;17.72;100.00;99393.84;4970309;28;19915;-88
2023/09/21 06:30:33;;;;;;;;;;;;;;;17.77;100.00;99400.13;4957209;28;19926;-89
2023/09/21 06:32:59;;;;;;;;;;;;;;;17.90;100.00;99397.72;4971721;28;19918;-86
2023/09/21 06:35:25;;;;;;;;;;;;;;;18.02;100.00;99398.16;4971794;28;20021;-88
2023/09/21 06:37:54;;;;;;;;;;;;;;;18.08;100.00;99396.97;4970657;28;19929;-89
2023/09/21 06:40:21;;;;;;;;;;;;;;;18.16;100.00;99389.97;4965371;28;20008;-86
2023/09/21 06:42:47;;;;;;;;;;;;;;;18.14;100.00;99383.94;4973731;28;19968;-85
2023/09/21 06:45:13;;;;;;;;;;;;;;;18.22;100.00;99374.97;4972852;28;19918;-88
2023/09/21 06:47:39;;;;;;;;;;;;;;;18.34;100.00;99379.22;4965308;28;19918;-87
2023/09/21 06:50:10;;;;;;;;;;;;;;;18.38;100.00;99388.53;4967191;28;19925;-88
2023/09/21 06:52:37;;;;;;;;;;;;;;;18.43;100.00;99388.47;4969646;28;20428;-87
2023/09/21 06:55:04;;;;;;;;;;;;;;;18.50;100.00;99379.81;4976903;28;19918;-86
2023/09/21 06:57:31;;;;;;;;;;;;;;;18.51;100.00;99382.25;4979003;28;19918;-90
2023/09/21 06:59:57;;;;;;;;;;;;;;;18.59;100.00;99377.19;4960785;28;19925;-86
2023/09/21 07:02:26;;;;;;;;;;;;;;;18.64;100.00;99375.13;4971180;28;19924;-88
2023/09/21 07:04:53;;;;;;;;;;;;;;;18.74;100.00;99378.84;4975083;28;19924;-89
2023/09/21 07:07:19;;;;;;;;;;;;;;;18.79;100.00;99376.00;4966103;28;20299;-89
2023/09/21 07:09:45;;;;;;;;;;;;;;;18.93;100.00;99374.06;4979244;28;19918;-86
2023/09/21 07:12:12;;;;;;;;;;;;;;;19.01;100.00;99367.06;4967704;28;19918;-89
2023/09/21 07:14:38;;;;;;;;;;;;;;;19.07;100.00;99374.13;4970953;28;19944;-87
2023/09/21 07:17:05;;;;;;;;;;;;;;;19.19;100.00;99378.34;4980331;28;19918;-86
2023/09/21 07:19:31;;;;;;;;;;;;;;;19.29;100.00;99372.63;4973169;28;19985;-87
2023/09/21 07:21:58;;;;;;;;;;;;;;;19.39;100.00;99366.91;4972730;28;20481;-85
2023/09/21 07:24:24;;;;;;;;;;;;;;;19.48;100.00;99380.00;4952524;28;19926;-87
2023/09/21 07:26:53;;;;;;;;;;;;;;;19.59;100.00;99372.31;4968672;28;20429;-88
2023/09/21 07:29:19;;;;;;;;;;;;;;;19.66;100.00;99368.00;4950624;28;20461;-89
2023/09/21 07:31:45;;;;;;;;;;;;;;;19.80;100.00;99365.22;4971969;28;19925;-88
2023/09/21 07:34:12;;;;;;;;;;;;;;;19.92;100.00;99361.97;4972427;28;19972;-85
2023/09/21 07:36:38;;;;;;;;;;;;;;;20.02;100.00;99368.38;4972607;28;19918;-86
2023/09/21 07:39:09;;;;;;;;;;;;;;;20.10;100.00;99362.94;4956439;28;19918;-88
2023/09/21 07:41:35;;;;;;;;;;;;;;;20.21;100.00;99363.50;4959564;28;19923;-84
2023/09/21 07:44:03;;;;;;;;;;;;;;;20.26;100.00;99360.63;4952727;29;20263;-85
2023/09/21 07:46:29;;;;;;;;;;;;;;;20.34;100.00;99355.44;4976138;28;19928;-88
2023/09/21 07:48:55;;;;;;;;;;;;;;;20.55;100.00;99356.59;4971646;28;20009;-85
2023/09/21 07:51:21;;;;;;;;;;;;;;;20.65;100.00;99352.75;4968407;28;20256;-85
2023/09/21 07:53:47;;;;;;;;;;;;;;;20.76;100.00;99338.63;4969850;28;19922;-85
2023/09/21 07:56:13;;;;;;;;;;;;;;;21.01;100.00;99337.16;4967882;28;19918;-86
2023/09/21 07:58:41;;;;;;;;;;;;;;;21.15;100.00;99339.00;4956455;28;19925;-85
2023/09/21 08:01:07;;;;;;;;;;;;;;;21.05;100.00;99335.38;4967430;28;19918;-86
2023/09/21 08:03:33;;;;;;;;;;;;;;;21.12;100.00;99340.47;4956985;28;19922;-88
2023/09/21 08:06:02;;;;;;;;;;;;;;;21.16;100.00;99335.91;4971718;28;19965;-87
2023/09/21 08:08:28;;;;;;;;;;;;;;;21.22;100.00;99342.94;4976671;28;20115;-85
2023/09/21 08:10:54;;;;;;;;;;;;;;;21.38;100.00;99343.31;4976437;28;20329;-87
2023/09/21 08:13:20;;;;;;;;;;;;;;;21.54;100.00;99346.47;4973999;28;19929;-85
2023/09/21 08:15:46;;;;;;;;;;;;;;;21.62;100.00;99339.31;4956673;29;19918;-87
2023/09/21 08:18:12;;;;;;;;;;;;;;;21.61;100.00;99347.94;4969385;28;19925;-87
2023/09/21 08:20:41;;;;;;;;;;;;;;;21.81;100.00;99341.00;4971498;28;19918;-86
2023/09/21 08:23:08;;;;;;;;;;;;;;;21.86;100.00;99338.06;4967422;28;19922;-83
2023/09/21 08:25:35;;;;;;;;;;;;;;;21.87;100.00;99348.03;4968763;28;19922;-84
2023/09/21 08:28:03;;;;;;;;;;;;;;;21.90;100.00;99349.38;4969770;28;19938;-87
2023/09/21 08:30:33;;;;;;;;;;;;;;;21.84;100.00;99343.13;4974745;28;19929;-85
2023/09/21 08:32:59;;;;;;;;;;;;;;;21.82;100.00;99349.00;4973277;28;19964;-89
2023/09/21 08:35:25;;;;;;;;;;;;;;;21.81;100.00;99349.34;4966252;28;19961;-88
2023/09/21 08:37:52;;;;;;;;;;;;;;;21.93;100.00;99343.16;4964074;28;20027;-90
2023/09/21 08:40:20;;;;;;;;;;;;;;;21.82;100.00;99350.97;4970690;28;19926;-86
2023/09/21 08:42:50;;;;;;;;;;;;;;;21.84;100.00;99343.94;4963784;28;20070;-87
2023/09/21 08:45:19;;;;;;;;;;;17.80;99.90;;;21.79;100.00;99348.84;4966846;28;19970;-86
2023/09/21 08:47:46;;;;;;;;;;;22.10;99.90;;;21.77;100.00;99351.94;4969273;28;19918;-87
2023/09/21 08:50:13;;;;;;;;;;;22.00;99.90;;;21.83;100.00;99344.28;4977750;28;19947;-84
2023/09/21 08:52:42;;;;;;;;;;;22.00;99.90;;;21.81;100.00;99335.47;4968706;28;19922;-86
2023/09/21 08:55:10;;;;;;;;;;;22.00;99.90;;;21.98;100.00;99354.91;4963194;28;19918;-89
2023/09/21 08:57:36;;;;;;;;;;;22.10;99.90;;;21.96;100.00;99354.41;4976967;28;19918;-89
2023/09/21 09:00:08;;;;;;;;;;;22.20;99.90;;;21.79;100.00;99351.63;4975461;28;20457;-86
2023/09/21 09:02:35;;;;;;;;;;;22.10;99.90;;;21.75;100.00;99348.66;4970641;28;19925;-89
2023/09/21 09:05:08;;;;;;;;;;;22.00;99.90;;;21.69;100.00;99364.66;4969019;28;19949;-86
2023/09/21 09:07:40;;;;;;;;;;;22.00;99.90;;;21.86;100.00;99357.50;4971040;28;19917;-89
2023/09/21 09:10:07;;;;;;;;;;;22.00;99.90;;;21.84;100.00;99363.38;4963929;28;20446;-86
2023/09/21 09:12:32;;;;;;;;;;;22.00;99.90;;;21.77;100.00;99342.81;4952281;28;19922;-87
2023/09/21 09:15:02;;;;;;;;;;;22.00;99.90;;;21.66;100.00;99343.09;4971426;28;20350;-87
2023/09/21 09:17:30;;;;;;;;;;;22.00;99.90;;;21.95;100.00;99354.75;4929079;28;19918;-84
2023/09/21 09:19:57;;;;;;;;;;;22.00;99.90;;;21.99;100.00;99352.94;4968529;28;20001;-88
2023/09/21 09:22:24;;;;;;;;;;;22.10;99.90;;;22.01;100.00;99350.66;4972706;28;19986;-88
2023/09/21 09:24:50;;;;;;;;;;;22.20;99.90;;;21.96;100.00;99359.97;4951268;28;19966;-87
2023/09/21 09:27:16;;;;;;;;;;;22.10;99.90;;;22.01;100.00;99356.22;4954402;28;20020;-90
2023/09/21 09:29:50;;;;;;;;;;;22.20;99.90;;;21.81;100.00;99344.59;4971425;28;19953;-88
2023/09/21 09:32:18;;;;;;;;;;;22.10;99.90;;;21.79;100.00;99346.06;4961826;28;19922;-86
2023/09/21 09:34:47;;;;;;;;;;;22.00;99.90;;;21.66;100.00;99347.84;4972436;28;19922;-84
2023/09/21 09:37:17;;;;;;;;;;;22.00;99.90;;;21.83;100.00;99344.28;4965323;28;19930;-87
2023/09/21 09:39:44;;;;;;;;;;;21.90;99.90;;;21.99;100.00;99348.19;4970652;28;19973;-86
2023/09/21 09:42:14;;;;;;;;;;;22.10;99.90;;;22.04;100.00;99343.66;4976701;28;19928;-87
2023/09/21 09:44:44;;;;;;;;;;;22.20;99.90;;;22.11;100.00;99341.19;4949882;29;19925;-84
2023/09/21 09:47:12;;;;;;;;;;;22.20;99.90;;;22.37;100.00;99343.16;4947151;29;19919;-86
2023/09/21 09:49:41;;;;;;;;;;;22.40;99.90;;;22.59;100.00;99342.16;4974759;28;20333;-83
2023/09/21 09:52:09;;;;;;;;;;;;;;;22.88;100.00;99348.16;4955920;28;19919;-85
2023/09/21 09:54:35;;;;;;;;;;;;;;;22.98;100.00;99336.66;4950526;29;19919;-82
2023/09/21 09:57:01;;;;;;;;;;;;;;;23.61;100.00;99327.72;4940486;29;19925;-85
2023/09/21 09:59:28;;;;;;;;;;;;;;;24.32;97.10;99338.34;4956303;29;20275;-89
2023/09/21 10:01:56;;;;;;;;;;;;;;;25.48;91.79;99325.63;4961644;28;19997;-88
2023/09/21 10:04:22;;;;;;;;;;;;;;;26.69;81.85;99339.94;4946670;29;19925;-85
2023/09/21 10:06:48;;;;;;;;;;;;;;;27.77;69.97;99324.22;4968224;28;19914;-89
2023/09/21 10:09:15;;;;;;;;;;;;;;;28.75;62.86;99324.22;4953477;29;19925;-89
2023/09/21 10:11:42;;;;;;;;;;;;;;;28.33;59.97;99317.44;4957674;29;20347;-88
2023/09/21 10:14:11;;;;;;;;;;;;;;;27.97;62.54;99323.06;4948653;29;20437;-90
2023/09/21 10:16:41;;;;;;;;;;;;;;;27.37;66.06;99326.06;4962502;29;19938;-89
2023/09/21 10:19:22;;;;;;;;;;;;;;;27.16;70.46;99329.16;4956430;29;20315;-89
2023/09/21 10:21:49;;;;;;;;;;;;;;;27.92;63.81;99319.75;4951287;28;20282;-88
2023/09/21 10:24:17;;;;;;;;;;;;;;;28.82;61.39;99312.34;4953739;28;19982;-89
2023/09/21 10:26:45;;;;;;;;;;;;;;;29.33;58.41;99307.59;4945322;29;19919;-90
2023/09/21 10:29:12;;;;;;;;;;;;;;;30.06;52.80;99309.47;4953462;29;19989;-89
2023/09/21 10:31:39;;;;;;;;;;;;;;;28.98;55.81;99310.22;4966679;28;19918;-93
2023/09/21 10:34:09;;;;;;;;;;;;;;;27.23;64.06;99316.16;4954677;29;20371;-90
2023/09/21 10:36:38;;;;;;;;;;;;;;;26.07;71.35;99307.44;4956267;29;19918;-93
2023/09/21 10:39:09;;;;;;;;;;;;;;;25.62;77.12;99314.88;4947750;29;19935;-93
2023/09/21 10:41:36;;;;;;;;;;;;;;;25.43;79.62;99307.09;4935369;29;19968;-91
2023/09/21 10:44:02;;;;;;;;;;;;;;;24.94;82.46;99300.34;4963573;28;20001;-89
2023/09/21 10:46:37;;;;;;;;;;;;;;;24.88;85.71;99309.28;4971291;28;19926;-90
2023/09/21 10:49:03;;;;;;;;;;;;;;;25.12;86.12;99302.91;4951111;29;19918;-90
2023/09/21 10:51:30;;;;;;;;;;;;;;;25.20;87.70;99295.59;4955252;28;19976;-94
2023/09/21 10:53:59;;;;;;;;;;;;;;;25.41;84.32;99296.25;4970961;28;19921;-92
2023/09/21 10:56:26;;;;;;;;;;;;;;;25.10;84.69;99297.66;4972589;28;20083;-86
2023/09/21 10:58:54;;;;;;;;;;;;;;;25.33;87.61;99297.22;4961653;28;19926;-85
2023/09/21 11:01:22;;;;;;;;;;;;;;;25.92;82.30;99283.84;4958292;28;19945;-86
2023/09/21 11:03:48;;;;;;;;;;;;;;;25.58;82.32;99285.22;4962384;28;19985;-89
2023/09/21 11:06:16;;;;;;;;;;;;;;;25.02;86.36;99281.88;4963324;28;19918;-87
2023/09/21 11:08:45;;;;;;;;;;;;;;;24.51;89.63;99282.91;4968672;28;19918;-87
2023/09/21 11:11:12;;;;;;;;;;;;;;;24.39;91.84;99277.28;4975237;28;19918;-91
2023/09/21 11:13:41;;;;;;;;;;;;;;;24.21;93.21;99280.28;4967535;28;19925;-86
2023/09/21 11:16:09;;;;;;;;;;;;;;;24.52;95.19;99273.41;4972078;28;19918;-86
2023/09/21 11:18:36;;;;;;;;;;;;;;;24.23;95.46;99280.75;4965526;28;19941;-87
2023/09/21 11:21:04;;;;;;;;;;;;;;;24.17;95.79;99272.94;4964279;28;19925;-86
2023/09/21 11:23:33;;;;;;;;;;;;;;;24.04;99.06;99272.06;4968132;28;19925;-87
2023/09/21 11:26:00;;;;;;;;;;;;;;;23.80;97.67;99263.25;4952874;29;19922;-84
2023/09/21 11:28:27;;;;;;;;;;;;;;;23.54;100.00;99266.19;4971324;28;20286;-84
2023/09/21 11:30:56;;;;;;;;;;;;;;;23.66;100.00;99268.25;4958198;28;19918;-83
2023/09/21 11:33:22;;;;;;;;;;;;;;;23.75;100.00;99273.75;4967262;28;19958;-85
2023/09/21 11:35:48;;;;;;;;;;;;;;;23.93;100.00;99271.63;4966594;28;19925;-88
2023/09/21 11:38:15;;;;;;;;;;;;;;;24.06;100.00;99270.59;4952282;29;19965;-88
2023/09/21 11:40:41;;;;;;;;;;;;;;;23.91;100.00;99255.28;4959030;28;19922;-85
2023/09/21 11:43:10;;;;;;;;;;;;;;;23.93;100.00;99257.72;4970634;28;19925;-85